createdAt,value
2022-12-31T00:00:48.430Z,1019.64
2022-12-31T00:01:49.391Z,1019.72
2022-12-31T00:02:50.434Z,1019.78
2022-12-31T00:03:50.838Z,1019.79
2022-12-31T00:04:51.717Z,1019.82
2022-12-31T00:05:52.598Z,1019.81
2022-12-31T00:06:53.488Z,1019.83
2022-12-31T00:07:54.372Z,1019.86
2022-12-31T00:08:55.267Z,1019.86
2022-12-31T00:09:56.132Z,1019.86
2022-12-31T00:10:57.017Z,1019.85
2022-12-31T00:11:57.910Z,1019.77
2022-12-31T00:12:58.801Z,1019.77
2022-12-31T00:13:59.719Z,1019.81
2022-12-31T00:15:00.573Z,1019.79
2022-12-31T00:16:05.417Z,1019.73
2022-12-31T00:17:03.250Z,1019.78
2022-12-31T00:18:03.130Z,1019.79
2022-12-31T00:19:04.030Z,1019.84
2022-12-31T00:20:04.925Z,1019.85
2022-12-31T00:21:05.823Z,1019.83
2022-12-31T00:22:06.734Z,1019.84
2022-12-31T00:23:07.631Z,1019.84
2022-12-31T00:24:08.579Z,1019.84
2022-12-31T00:25:09.419Z,1019.80
2022-12-31T00:26:10.324Z,1019.84
2022-12-31T00:27:11.196Z,1019.85
2022-12-31T00:28:12.097Z,1019.83
2022-12-31T00:29:12.993Z,1019.78
2022-12-31T00:30:13.873Z,1019.80
2022-12-31T00:31:14.802Z,1019.82
2022-12-31T00:32:15.652Z,1019.78
2022-12-31T00:33:16.544Z,1019.77
2022-12-31T00:34:17.425Z,1019.78
2022-12-31T00:35:18.305Z,1019.82
2022-12-31T00:36:19.194Z,1019.79
2022-12-31T00:37:20.079Z,1019.81
2022-12-31T00:38:20.964Z,1019.82
2022-12-31T00:39:21.991Z,1019.83
2022-12-31T00:40:22.812Z,1019.90
2022-12-31T00:41:23.697Z,1019.95
2022-12-31T00:42:24.590Z,1020.00
2022-12-31T00:43:25.483Z,1020.04
2022-12-31T00:44:26.363Z,1020.07
2022-12-31T00:45:27.241Z,1020.07
2022-12-31T00:46:28.147Z,1020.08
2022-12-31T00:47:29.034Z,1020.10
2022-12-31T00:48:29.916Z,1020.04
2022-12-31T00:49:30.797Z,1020.02
2022-12-31T00:50:31.680Z,1020.06
2022-12-31T00:51:32.587Z,1020.09
2022-12-31T00:52:33.477Z,1020.08
2022-12-31T00:53:34.362Z,1020.05
2022-12-31T00:54:35.259Z,1020.05
2022-12-31T00:55:36.125Z,1020.11
2022-12-31T00:56:37.030Z,1020.17
2022-12-31T00:57:37.916Z,1020.12
2022-12-31T00:58:38.810Z,1020.13
2022-12-31T00:59:39.688Z,1020.14
2022-12-31T01:00:40.568Z,1020.15
2022-12-31T01:01:41.557Z,1020.15
2022-12-31T01:02:42.159Z,1020.17
2022-12-31T01:03:42.556Z,1020.15
2022-12-31T01:04:43.430Z,1020.18
2022-12-31T01:05:44.305Z,1020.22
2022-12-31T01:06:45.199Z,1020.27
2022-12-31T01:07:46.089Z,1020.34
2022-12-31T01:08:46.961Z,1020.38
2022-12-31T01:09:47.872Z,1020.38
2022-12-31T01:10:48.739Z,1020.42
2022-12-31T01:11:49.633Z,1020.45
2022-12-31T01:12:50.541Z,1020.46
2022-12-31T01:13:51.399Z,1020.43
2022-12-31T01:14:52.307Z,1020.48
2022-12-31T01:15:53.261Z,1020.59
2022-12-31T01:16:54.144Z,1020.60
2022-12-31T01:17:55.029Z,1020.58
2022-12-31T01:18:55.919Z,1020.57
2022-12-31T01:19:56.822Z,1020.57
2022-12-31T01:20:57.689Z,1020.68
2022-12-31T01:21:58.610Z,1020.68
2022-12-31T01:22:59.488Z,1020.66
2022-12-31T01:24:00.359Z,1020.69
2022-12-31T01:25:01.299Z,1020.70
2022-12-31T01:26:02.136Z,1020.69
2022-12-31T01:27:03.046Z,1020.74
2022-12-31T01:28:03.928Z,1020.77
2022-12-31T01:29:04.811Z,1020.77
2022-12-31T01:30:05.700Z,1020.86
2022-12-31T01:31:06.606Z,1020.92
2022-12-31T01:32:07.496Z,1020.95
2022-12-31T01:33:08.351Z,1020.84
2022-12-31T01:34:09.249Z,1020.78
2022-12-31T01:35:10.135Z,1020.80
2022-12-31T01:36:11.003Z,1020.84
2022-12-31T01:37:11.902Z,1020.88
2022-12-31T01:38:12.781Z,1020.93
2022-12-31T01:39:13.661Z,1020.97
2022-12-31T01:40:14.554Z,1021.05
2022-12-31T01:41:15.421Z,1021.06
2022-12-31T01:42:16.315Z,1021.01
2022-12-31T01:43:17.195Z,1021.01
2022-12-31T01:44:18.081Z,1021.01
2022-12-31T01:45:18.967Z,1021.05
2022-12-31T01:46:19.910Z,1021.08
2022-12-31T01:47:20.786Z,1021.07
2022-12-31T01:48:21.674Z,1021.01
2022-12-31T01:49:22.559Z,1021.02
2022-12-31T01:50:23.446Z,1021.06
2022-12-31T01:51:24.320Z,1021.04
2022-12-31T01:52:25.247Z,1021.01
2022-12-31T01:53:26.128Z,1020.99
2022-12-31T01:54:27.026Z,1021.01
2022-12-31T01:55:27.925Z,1021.01
2022-12-31T01:56:28.783Z,1021.01
2022-12-31T01:57:29.673Z,1021.04
2022-12-31T01:58:30.559Z,1021.05
2022-12-31T01:59:31.444Z,1021.04
2022-12-31T02:00:32.327Z,1021.06
2022-12-31T02:01:33.342Z,1021.09
2022-12-31T02:02:33.885Z,1021.05
2022-12-31T02:03:34.281Z,1021.12
2022-12-31T02:04:35.164Z,1021.05
2022-12-31T02:05:36.047Z,1021.12
2022-12-31T02:06:36.937Z,1021.11
2022-12-31T02:07:37.857Z,1021.08
2022-12-31T02:08:42.146Z,1021.01
2022-12-31T02:09:39.311Z,1021.03
2022-12-31T02:10:40.223Z,1021.11
2022-12-31T02:11:41.073Z,1021.15
2022-12-31T02:12:41.979Z,1021.13
2022-12-31T02:13:42.849Z,1021.15
2022-12-31T02:14:43.748Z,1021.21
2022-12-31T02:15:44.637Z,1021.27
2022-12-31T02:16:45.498Z,1021.31
2022-12-31T02:17:46.388Z,1021.27
2022-12-31T02:18:47.274Z,1021.26
2022-12-31T02:19:48.154Z,1021.26
2022-12-31T02:20:49.050Z,1021.30
2022-12-31T02:21:49.947Z,1021.35
2022-12-31T02:22:50.938Z,1021.28
2022-12-31T02:23:51.487Z,1021.25
2022-12-31T02:24:52.360Z,1021.33
2022-12-31T02:25:53.262Z,1021.39
2022-12-31T02:26:54.133Z,1021.38
2022-12-31T02:27:55.018Z,1021.37
2022-12-31T02:28:55.935Z,1021.30
2022-12-31T02:29:56.799Z,1021.23
2022-12-31T02:30:57.736Z,1021.25
2022-12-31T02:31:58.584Z,1021.27
2022-12-31T02:33:01.741Z,1021.24
2022-12-31T02:34:00.399Z,1021.18
2022-12-31T02:35:01.293Z,1021.25
2022-12-31T02:36:02.165Z,1021.33
2022-12-31T02:37:03.062Z,1021.30
2022-12-31T02:38:03.969Z,1021.23
2022-12-31T02:39:04.832Z,1021.21
2022-12-31T02:40:05.699Z,1021.16
2022-12-31T02:41:06.609Z,1021.15
2022-12-31T02:42:07.465Z,1021.22
2022-12-31T02:43:08.358Z,1021.13
2022-12-31T02:44:09.241Z,1021.19
2022-12-31T02:45:10.125Z,1021.28
2022-12-31T02:46:11.063Z,1021.26
2022-12-31T02:47:11.917Z,1021.30
2022-12-31T02:48:12.803Z,1021.38
2022-12-31T02:49:13.688Z,1021.37
2022-12-31T02:50:14.585Z,1021.37
2022-12-31T02:51:15.458Z,1021.38
2022-12-31T02:52:16.335Z,1021.32
2022-12-31T02:53:17.229Z,1021.35
2022-12-31T02:54:18.109Z,1021.31
2022-12-31T02:55:19.006Z,1021.38
2022-12-31T02:56:19.910Z,1021.37
2022-12-31T02:57:20.753Z,1021.41
2022-12-31T02:58:21.643Z,1021.45
2022-12-31T02:59:22.529Z,1021.48
2022-12-31T03:00:23.464Z,1021.52
2022-12-31T03:01:24.380Z,1021.48
2022-12-31T03:02:25.405Z,1021.45
2022-12-31T03:03:25.775Z,1021.48
2022-12-31T03:04:26.655Z,1021.46
2022-12-31T03:05:27.538Z,1021.47
2022-12-31T03:06:28.426Z,1021.51
2022-12-31T03:07:29.317Z,1021.46
2022-12-31T03:08:30.205Z,1021.49
2022-12-31T03:09:31.079Z,1021.54
2022-12-31T03:10:31.960Z,1021.56
2022-12-31T03:11:32.867Z,1021.59
2022-12-31T03:12:33.727Z,1021.62
2022-12-31T03:13:34.622Z,1021.60
2022-12-31T03:14:35.542Z,1021.62
2022-12-31T03:15:36.396Z,1021.67
2022-12-31T03:16:37.347Z,1021.67
2022-12-31T03:17:38.193Z,1021.72
2022-12-31T03:18:39.110Z,1021.69
2022-12-31T03:19:39.998Z,1021.64
2022-12-31T03:20:40.898Z,1021.67
2022-12-31T03:21:41.803Z,1021.64
2022-12-31T03:22:42.703Z,1021.72
2022-12-31T03:23:43.611Z,1021.72
2022-12-31T03:24:44.511Z,1021.66
2022-12-31T03:25:45.384Z,1021.67
2022-12-31T03:26:46.294Z,1021.65
2022-12-31T03:27:47.163Z,1021.70
2022-12-31T03:28:48.212Z,1021.64
2022-12-31T03:29:48.535Z,1021.65
2022-12-31T03:30:49.419Z,1021.67
2022-12-31T03:31:50.345Z,1021.63
2022-12-31T03:32:51.193Z,1021.55
2022-12-31T03:33:52.077Z,1021.58
2022-12-31T03:34:52.961Z,1021.64
2022-12-31T03:35:53.843Z,1021.63
2022-12-31T03:36:54.726Z,1021.59
2022-12-31T03:37:55.609Z,1021.61
2022-12-31T03:38:56.504Z,1021.64
2022-12-31T03:39:57.377Z,1021.65
2022-12-31T03:40:58.273Z,1021.69
2022-12-31T03:41:59.178Z,1021.64
2022-12-31T03:43:00.066Z,1021.60
2022-12-31T03:44:00.978Z,1021.59
2022-12-31T03:45:01.860Z,1021.43
2022-12-31T03:46:02.840Z,1021.38
2022-12-31T03:47:03.677Z,1021.41
2022-12-31T03:48:04.584Z,1021.49
2022-12-31T03:49:05.484Z,1021.55
2022-12-31T03:50:06.383Z,1021.55
2022-12-31T03:51:07.276Z,1021.53
2022-12-31T03:52:08.186Z,1021.52
2022-12-31T03:53:09.084Z,1021.54
2022-12-31T03:54:09.987Z,1021.54
2022-12-31T03:55:10.885Z,1021.51
2022-12-31T03:56:11.788Z,1021.39
2022-12-31T03:57:12.715Z,1021.40
2022-12-31T03:58:13.596Z,1021.40
2022-12-31T03:59:14.531Z,1021.48
2022-12-31T04:00:15.401Z,1021.44
2022-12-31T04:01:16.443Z,1021.39
2022-12-31T04:02:17.003Z,1021.39
2022-12-31T04:03:17.469Z,1021.36
2022-12-31T04:04:18.353Z,1021.36
2022-12-31T04:05:19.237Z,1021.34
2022-12-31T04:06:20.121Z,1021.30
2022-12-31T04:07:21.012Z,1021.28
2022-12-31T04:08:21.902Z,1021.28
2022-12-31T04:09:22.790Z,1021.31
2022-12-31T04:10:23.695Z,1021.36
2022-12-31T04:11:24.595Z,1021.39
2022-12-31T04:12:25.518Z,1021.43
2022-12-31T04:13:26.381Z,1021.39
2022-12-31T04:14:27.363Z,1021.34
2022-12-31T04:15:28.243Z,1021.32
2022-12-31T04:16:29.160Z,1021.33
2022-12-31T04:17:30.016Z,1021.45
2022-12-31T04:18:30.912Z,1021.57
2022-12-31T04:19:31.815Z,1021.60
2022-12-31T04:20:32.699Z,1021.60
2022-12-31T04:21:35.355Z,1021.69
2022-12-31T04:22:34.256Z,1021.72
2022-12-31T04:23:35.141Z,1021.74
2022-12-31T04:24:36.033Z,1021.69
2022-12-31T04:25:36.916Z,1021.78
2022-12-31T04:26:37.798Z,1021.74
2022-12-31T04:27:38.796Z,1021.73
2022-12-31T04:28:39.612Z,1021.70
2022-12-31T04:29:40.504Z,1021.63
2022-12-31T04:30:41.395Z,1021.63
2022-12-31T04:31:42.316Z,1021.61
2022-12-31T04:32:43.181Z,1021.56
2022-12-31T04:33:44.037Z,1021.62
2022-12-31T04:34:44.941Z,1021.67
2022-12-31T04:35:45.812Z,1021.62
2022-12-31T04:36:46.707Z,1021.57
2022-12-31T04:37:47.589Z,1021.58
2022-12-31T04:38:48.455Z,1021.68
2022-12-31T04:39:49.348Z,1021.76
2022-12-31T04:40:50.241Z,1021.81
2022-12-31T04:41:51.122Z,1021.83
2022-12-31T04:42:52.048Z,1021.84
2022-12-31T04:43:52.887Z,1021.87
2022-12-31T04:44:53.789Z,1021.88
2022-12-31T04:45:54.693Z,1021.90
2022-12-31T04:46:55.548Z,1021.96
2022-12-31T04:47:56.450Z,1021.97
2022-12-31T04:48:57.375Z,1021.99
2022-12-31T04:49:58.269Z,1022.00
2022-12-31T04:50:59.150Z,1022.00
2022-12-31T04:52:00.050Z,1022.00
2022-12-31T04:53:00.907Z,1021.98
2022-12-31T04:54:01.805Z,1022.04
2022-12-31T04:55:02.700Z,1022.02
2022-12-31T04:56:03.609Z,1022.04
2022-12-31T04:57:04.505Z,1022.09
2022-12-31T04:58:05.438Z,1022.08
2022-12-31T04:59:06.288Z,1022.05
2022-12-31T05:00:07.180Z,1022.03
2022-12-31T05:01:08.253Z,1022.06
2022-12-31T05:02:08.913Z,1022.05
2022-12-31T05:03:09.398Z,1022.02
2022-12-31T05:04:10.253Z,1022.01
2022-12-31T05:05:11.142Z,1022.06
2022-12-31T05:06:12.027Z,1022.13
2022-12-31T05:07:12.908Z,1022.17
2022-12-31T05:08:13.796Z,1022.19
2022-12-31T05:09:14.675Z,1022.18
2022-12-31T05:10:15.579Z,1022.13
2022-12-31T05:11:16.473Z,1022.02
2022-12-31T05:12:17.380Z,1021.99
2022-12-31T05:13:18.306Z,1021.99
2022-12-31T05:14:19.259Z,1022.02
2022-12-31T05:15:20.110Z,1022.03
2022-12-31T05:16:21.063Z,1022.00
2022-12-31T05:17:21.897Z,1022.02
2022-12-31T05:18:22.782Z,1022.01
2022-12-31T05:19:23.672Z,1021.99
2022-12-31T05:20:24.571Z,1022.00
2022-12-31T05:21:25.450Z,1022.01
2022-12-31T05:22:26.352Z,1021.99
2022-12-31T05:23:27.218Z,1021.98
2022-12-31T05:24:28.104Z,1022.01
2022-12-31T05:25:28.996Z,1022.02
2022-12-31T05:26:29.893Z,1022.08
2022-12-31T05:27:30.764Z,1022.08
2022-12-31T05:28:31.672Z,1022.04
2022-12-31T05:29:32.531Z,1022.03
2022-12-31T05:30:33.462Z,1022.06
2022-12-31T05:31:34.311Z,1022.05
2022-12-31T05:32:35.192Z,1022.13
2022-12-31T05:33:36.075Z,1022.19
2022-12-31T05:34:36.965Z,1022.20
2022-12-31T05:35:37.852Z,1022.16
2022-12-31T05:36:38.733Z,1022.17
2022-12-31T05:37:39.613Z,1022.16
2022-12-31T05:38:40.495Z,1022.22
2022-12-31T05:39:41.377Z,1022.28
2022-12-31T05:40:42.262Z,1022.28
2022-12-31T05:41:43.155Z,1022.28
2022-12-31T05:42:44.034Z,1022.27
2022-12-31T05:43:44.938Z,1022.32
2022-12-31T05:44:45.788Z,1022.32
2022-12-31T05:45:46.705Z,1022.30
2022-12-31T05:46:47.561Z,1022.33
2022-12-31T05:47:48.444Z,1022.35
2022-12-31T05:48:49.328Z,1022.36
2022-12-31T05:49:50.214Z,1022.36
2022-12-31T05:50:51.105Z,1022.42
2022-12-31T05:51:51.990Z,1022.43
2022-12-31T05:52:52.871Z,1022.42
2022-12-31T05:53:53.760Z,1022.43
2022-12-31T05:54:54.629Z,1022.50
2022-12-31T05:55:55.681Z,1022.55
2022-12-31T05:56:56.016Z,1022.54
2022-12-31T05:57:56.906Z,1022.42
2022-12-31T05:58:57.823Z,1022.40
2022-12-31T05:59:58.690Z,1022.45
2022-12-31T06:00:59.607Z,1022.45
2022-12-31T06:02:00.444Z,1022.44
2022-12-31T06:03:01.467Z,1022.48
2022-12-31T06:04:01.900Z,1022.51
2022-12-31T06:05:02.820Z,1022.56
2022-12-31T06:06:03.728Z,1022.54
2022-12-31T06:07:04.591Z,1022.56
2022-12-31T06:08:05.475Z,1022.59
2022-12-31T06:09:06.358Z,1022.62
2022-12-31T06:10:07.250Z,1022.59
2022-12-31T06:11:08.133Z,1022.56
2022-12-31T06:12:09.019Z,1022.56
2022-12-31T06:13:09.899Z,1022.55
2022-12-31T06:14:10.808Z,1022.53
2022-12-31T06:15:11.671Z,1022.54
2022-12-31T06:16:12.575Z,1022.55
2022-12-31T06:17:13.449Z,1022.56
2022-12-31T06:18:14.328Z,1022.56
2022-12-31T06:19:15.208Z,1022.56
2022-12-31T06:20:16.095Z,1022.56
2022-12-31T06:21:16.989Z,1022.59
2022-12-31T06:22:17.872Z,1022.64
2022-12-31T06:23:18.754Z,1022.65
2022-12-31T06:24:19.645Z,1022.56
2022-12-31T06:25:20.523Z,1022.54
2022-12-31T06:26:21.414Z,1022.53
2022-12-31T06:27:22.297Z,1022.57
2022-12-31T06:28:23.192Z,1022.64
2022-12-31T06:29:24.088Z,1022.62
2022-12-31T06:30:24.953Z,1022.58
2022-12-31T06:31:25.877Z,1022.59
2022-12-31T06:32:26.738Z,1022.59
2022-12-31T06:33:27.629Z,1022.58
2022-12-31T06:34:28.503Z,1022.53
2022-12-31T06:35:29.388Z,1022.52
2022-12-31T06:36:30.293Z,1022.47
2022-12-31T06:37:31.112Z,1022.42
2022-12-31T06:38:31.999Z,1022.42
2022-12-31T06:39:32.901Z,1022.45
2022-12-31T06:40:33.744Z,1022.53
2022-12-31T06:41:34.632Z,1022.51
2022-12-31T06:42:35.533Z,1022.49
2022-12-31T06:43:36.406Z,1022.54
2022-12-31T06:44:37.312Z,1022.51
2022-12-31T06:45:38.136Z,1022.52
2022-12-31T06:46:39.053Z,1022.55
2022-12-31T06:47:39.879Z,1022.54
2022-12-31T06:48:40.703Z,1022.56
2022-12-31T06:49:41.545Z,1022.60
2022-12-31T06:50:42.373Z,1022.61
2022-12-31T06:51:43.214Z,1022.60
2022-12-31T06:52:44.044Z,1022.58
2022-12-31T06:53:44.869Z,1022.63
2022-12-31T06:54:45.738Z,1022.62
2022-12-31T06:55:46.594Z,1022.58
2022-12-31T06:56:47.404Z,1022.55
2022-12-31T06:57:48.250Z,1022.55
2022-12-31T06:58:49.066Z,1022.63
2022-12-31T06:59:50.005Z,1022.70
2022-12-31T07:00:50.786Z,1022.70
2022-12-31T07:01:51.760Z,1022.74
2022-12-31T07:02:52.678Z,1022.76
2022-12-31T07:03:53.476Z,1022.72
2022-12-31T07:04:54.303Z,1022.69
2022-12-31T07:05:55.135Z,1022.70
2022-12-31T07:06:55.975Z,1022.75
2022-12-31T07:07:56.803Z,1022.81
2022-12-31T07:08:57.646Z,1022.86
2022-12-31T07:09:58.482Z,1022.90
2022-12-31T07:10:59.324Z,1022.92
2022-12-31T07:12:00.140Z,1022.90
2022-12-31T07:13:00.971Z,1022.92
2022-12-31T07:14:01.801Z,1022.92
2022-12-31T07:15:02.714Z,1022.89
2022-12-31T07:16:03.554Z,1022.94
2022-12-31T07:17:04.411Z,1022.93
2022-12-31T07:18:05.195Z,1022.98
2022-12-31T07:19:06.025Z,1023.00
2022-12-31T07:20:06.873Z,1022.95
2022-12-31T07:21:07.710Z,1022.95
2022-12-31T07:22:08.535Z,1022.99
2022-12-31T07:23:09.354Z,1023.05
2022-12-31T07:24:10.194Z,1023.11
2022-12-31T07:25:11.016Z,1023.14
2022-12-31T07:26:11.863Z,1023.12
2022-12-31T07:27:12.684Z,1023.11
2022-12-31T07:28:13.514Z,1023.08
2022-12-31T07:29:14.343Z,1023.09
2022-12-31T07:30:15.197Z,1023.07
2022-12-31T07:31:16.039Z,1023.15
2022-12-31T07:32:16.841Z,1023.16
2022-12-31T07:33:17.682Z,1023.19
2022-12-31T07:34:18.501Z,1023.22
2022-12-31T07:35:19.330Z,1023.24
2022-12-31T07:36:20.173Z,1023.29
2022-12-31T07:37:21.000Z,1023.24
2022-12-31T07:38:21.837Z,1023.29
2022-12-31T07:39:22.659Z,1023.29
2022-12-31T07:40:23.495Z,1023.29
2022-12-31T07:41:24.330Z,1023.30
2022-12-31T07:42:25.149Z,1023.36
2022-12-31T07:43:25.979Z,1023.42
2022-12-31T07:44:26.810Z,1023.49
2022-12-31T07:45:27.657Z,1023.53
2022-12-31T07:46:28.651Z,1023.49
2022-12-31T07:47:28.949Z,1023.48
2022-12-31T07:48:29.793Z,1023.58
2022-12-31T07:49:30.619Z,1023.58
2022-12-31T07:50:31.457Z,1023.58
2022-12-31T07:51:32.288Z,1023.62
2022-12-31T07:52:33.118Z,1023.64
2022-12-31T07:53:33.947Z,1023.66
2022-12-31T07:54:34.794Z,1023.64
2022-12-31T07:55:35.623Z,1023.64
2022-12-31T07:56:36.472Z,1023.64
2022-12-31T07:57:37.301Z,1023.61
2022-12-31T07:58:38.123Z,1023.66
2022-12-31T07:59:38.965Z,1023.60
2022-12-31T08:00:39.866Z,1023.60
2022-12-31T08:01:40.807Z,1023.60
2022-12-31T08:02:41.274Z,1023.63
2022-12-31T08:03:42.094Z,1023.61
2022-12-31T08:04:42.919Z,1023.64
2022-12-31T08:05:43.749Z,1023.68
2022-12-31T08:06:44.576Z,1023.65
2022-12-31T08:07:45.409Z,1023.61
2022-12-31T08:08:46.238Z,1023.70
2022-12-31T08:09:47.066Z,1023.80
2022-12-31T08:10:47.898Z,1023.72
2022-12-31T08:11:48.746Z,1023.58
2022-12-31T08:12:49.617Z,1023.48
2022-12-31T08:13:50.396Z,1023.57
2022-12-31T08:14:51.226Z,1023.62
2022-12-31T08:15:52.147Z,1023.66
2022-12-31T08:16:52.935Z,1023.66
2022-12-31T08:17:53.768Z,1023.67
2022-12-31T08:18:54.597Z,1023.68
2022-12-31T08:19:55.424Z,1023.75
2022-12-31T08:20:56.266Z,1023.75
2022-12-31T08:21:57.102Z,1023.67
2022-12-31T08:22:57.943Z,1023.70
2022-12-31T08:23:58.768Z,1023.70
2022-12-31T08:24:59.580Z,1023.65
2022-12-31T08:26:00.414Z,1023.62
2022-12-31T08:27:01.260Z,1023.65
2022-12-31T08:28:02.090Z,1023.68
2022-12-31T08:29:02.909Z,1023.70
2022-12-31T08:30:03.745Z,1023.70
2022-12-31T08:31:04.579Z,1023.70
2022-12-31T08:32:05.399Z,1023.58
2022-12-31T08:33:06.266Z,1023.57
2022-12-31T08:34:07.096Z,1023.55
2022-12-31T08:35:07.910Z,1023.58
2022-12-31T08:36:08.744Z,1023.66
2022-12-31T08:37:09.583Z,1023.72
2022-12-31T08:38:10.411Z,1023.73
2022-12-31T08:39:11.226Z,1023.74
2022-12-31T08:40:12.098Z,1023.71
2022-12-31T08:41:12.928Z,1023.71
2022-12-31T08:42:13.766Z,1023.68
2022-12-31T08:43:14.619Z,1023.72
2022-12-31T08:44:15.445Z,1023.68
2022-12-31T08:45:16.278Z,1023.63
2022-12-31T08:46:17.182Z,1023.67
2022-12-31T08:47:17.975Z,1023.71
2022-12-31T08:48:18.804Z,1023.80
2022-12-31T08:49:19.635Z,1023.87
2022-12-31T08:50:20.463Z,1023.83
2022-12-31T08:51:21.299Z,1023.80
2022-12-31T08:52:22.133Z,1023.72
2022-12-31T08:53:22.969Z,1023.73
2022-12-31T08:54:23.817Z,1023.77
2022-12-31T08:55:24.650Z,1023.76
2022-12-31T08:56:25.479Z,1023.78
2022-12-31T08:57:26.332Z,1023.81
2022-12-31T08:58:27.149Z,1023.77
2022-12-31T08:59:27.970Z,1023.69
2022-12-31T09:00:28.798Z,1023.71
2022-12-31T09:01:29.700Z,1023.73
2022-12-31T09:02:30.507Z,1023.67
2022-12-31T09:03:31.334Z,1023.63
2022-12-31T09:04:32.237Z,1023.58
2022-12-31T09:05:33.098Z,1023.54
2022-12-31T09:06:33.886Z,1023.59
2022-12-31T09:07:34.747Z,1023.60
2022-12-31T09:08:35.574Z,1023.67
2022-12-31T09:09:36.400Z,1023.66
2022-12-31T09:10:37.223Z,1023.70
2022-12-31T09:11:38.045Z,1023.77
2022-12-31T09:12:38.889Z,1023.70
2022-12-31T09:13:39.716Z,1023.63
2022-12-31T09:14:40.547Z,1023.58
2022-12-31T09:15:41.372Z,1023.57
2022-12-31T09:16:42.284Z,1023.58
2022-12-31T09:17:43.139Z,1023.65
2022-12-31T09:18:43.979Z,1023.72
2022-12-31T09:19:44.800Z,1023.75
2022-12-31T09:20:45.631Z,1023.75
2022-12-31T09:21:46.475Z,1023.74
2022-12-31T09:22:47.294Z,1023.68
2022-12-31T09:23:48.122Z,1023.66
2022-12-31T09:24:48.954Z,1023.71
2022-12-31T09:25:49.783Z,1023.69
2022-12-31T09:26:50.629Z,1023.69
2022-12-31T09:27:51.496Z,1023.69
2022-12-31T09:28:52.305Z,1023.62
2022-12-31T09:29:53.129Z,1023.60
2022-12-31T09:30:53.961Z,1023.60
2022-12-31T09:31:54.851Z,1023.61
2022-12-31T09:33:00.756Z,1023.60
2022-12-31T09:33:57.371Z,1023.53
2022-12-31T09:34:57.193Z,1023.52
2022-12-31T09:35:58.024Z,1023.50
2022-12-31T09:36:58.852Z,1023.56
2022-12-31T09:37:59.698Z,1023.59
2022-12-31T09:39:00.517Z,1023.62
2022-12-31T09:40:01.354Z,1023.58
2022-12-31T09:41:02.174Z,1023.55
2022-12-31T09:42:03.006Z,1023.55
2022-12-31T09:43:03.833Z,1023.52
2022-12-31T09:44:04.663Z,1023.50
2022-12-31T09:45:05.489Z,1023.50
2022-12-31T09:46:06.388Z,1023.50
2022-12-31T09:47:07.297Z,1023.46
2022-12-31T09:48:08.062Z,1023.45
2022-12-31T09:49:08.888Z,1023.41
2022-12-31T09:50:09.720Z,1023.42
2022-12-31T09:51:10.558Z,1023.42
2022-12-31T09:52:11.382Z,1023.39
2022-12-31T09:53:12.225Z,1023.47
2022-12-31T09:54:13.047Z,1023.51
2022-12-31T09:55:13.887Z,1023.45
2022-12-31T09:56:14.738Z,1023.41
2022-12-31T09:57:15.532Z,1023.37
2022-12-31T09:58:16.389Z,1023.38
2022-12-31T09:59:17.200Z,1023.38
2022-12-31T10:00:18.028Z,1023.38
2022-12-31T10:01:19.008Z,1023.37
2022-12-31T10:02:19.563Z,1023.37
2022-12-31T10:03:19.958Z,1023.39
2022-12-31T10:04:23.140Z,1023.36
2022-12-31T10:05:21.613Z,1023.36
2022-12-31T10:06:22.432Z,1023.37
2022-12-31T10:07:23.253Z,1023.44
2022-12-31T10:08:24.099Z,1023.41
2022-12-31T10:09:24.932Z,1023.36
2022-12-31T10:10:25.766Z,1023.38
2022-12-31T10:11:26.576Z,1023.40
2022-12-31T10:12:27.404Z,1023.40
2022-12-31T10:13:28.245Z,1023.44
2022-12-31T10:14:29.075Z,1023.39
2022-12-31T10:15:29.908Z,1023.37
2022-12-31T10:16:30.773Z,1023.34
2022-12-31T10:17:31.593Z,1023.30
2022-12-31T10:18:32.424Z,1023.31
2022-12-31T10:19:33.252Z,1023.30
2022-12-31T10:20:34.084Z,1023.28
2022-12-31T10:21:34.918Z,1023.20
2022-12-31T10:22:35.743Z,1023.14
2022-12-31T10:23:36.596Z,1023.15
2022-12-31T10:24:37.412Z,1023.16
2022-12-31T10:25:39.475Z,1023.17
2022-12-31T10:26:39.069Z,1023.08
2022-12-31T10:27:39.886Z,1023.04
2022-12-31T10:28:40.776Z,1022.97
2022-12-31T10:29:41.583Z,1022.93
2022-12-31T10:30:42.446Z,1022.92
2022-12-31T10:31:43.243Z,1022.96
2022-12-31T10:32:44.107Z,1022.97
2022-12-31T10:33:44.981Z,1022.95
2022-12-31T10:34:45.809Z,1022.98
2022-12-31T10:35:46.633Z,1022.97
2022-12-31T10:36:47.463Z,1022.89
2022-12-31T10:37:48.284Z,1022.85
2022-12-31T10:38:49.123Z,1022.82
2022-12-31T10:39:49.945Z,1022.82
2022-12-31T10:40:50.775Z,1022.81
2022-12-31T10:41:51.613Z,1022.79
2022-12-31T10:42:52.446Z,1022.79
2022-12-31T10:43:53.282Z,1022.77
2022-12-31T10:44:54.108Z,1022.78
2022-12-31T10:45:54.953Z,1022.77
2022-12-31T10:46:55.773Z,1022.69
2022-12-31T10:47:56.614Z,1022.64
2022-12-31T10:48:57.444Z,1022.64
2022-12-31T10:49:58.269Z,1022.60
2022-12-31T10:50:59.101Z,1022.60
2022-12-31T10:51:59.923Z,1022.60
2022-12-31T10:53:00.755Z,1022.60
2022-12-31T10:54:01.597Z,1022.62
2022-12-31T10:55:02.425Z,1022.63
2022-12-31T10:56:03.247Z,1022.62
2022-12-31T10:57:04.076Z,1022.61
2022-12-31T10:58:04.910Z,1022.61
2022-12-31T10:59:05.767Z,1022.60
2022-12-31T11:00:06.586Z,1022.65
2022-12-31T11:01:07.605Z,1022.68
2022-12-31T11:02:08.083Z,1022.69
2022-12-31T11:03:08.577Z,1022.68
2022-12-31T11:04:09.384Z,1022.70
2022-12-31T11:05:10.216Z,1022.72
2022-12-31T11:06:11.032Z,1022.68
2022-12-31T11:07:11.863Z,1022.63
2022-12-31T11:08:12.682Z,1022.65
2022-12-31T11:09:13.531Z,1022.71
2022-12-31T11:10:14.347Z,1022.73
2022-12-31T11:11:15.189Z,1022.73
2022-12-31T11:12:16.026Z,1022.69
2022-12-31T11:13:16.857Z,1022.65
2022-12-31T11:14:17.696Z,1022.62
2022-12-31T11:15:18.518Z,1022.61
2022-12-31T11:16:19.429Z,1022.64
2022-12-31T11:17:20.233Z,1022.61
2022-12-31T11:18:21.079Z,1022.62
2022-12-31T11:19:21.902Z,1022.62
2022-12-31T11:20:22.729Z,1022.64
2022-12-31T11:21:28.302Z,1022.65
2022-12-31T11:22:25.275Z,1022.61
2022-12-31T11:23:25.107Z,1022.65
2022-12-31T11:24:25.953Z,1022.64
2022-12-31T11:25:26.774Z,1022.58
2022-12-31T11:26:27.606Z,1022.52
2022-12-31T11:27:28.437Z,1022.58
2022-12-31T11:28:29.271Z,1022.66
2022-12-31T11:29:30.113Z,1022.63
2022-12-31T11:30:30.940Z,1022.61
2022-12-31T11:31:31.833Z,1022.60
2022-12-31T11:32:32.641Z,1022.68
2022-12-31T11:33:33.511Z,1022.66
2022-12-31T11:34:34.301Z,1022.65
2022-12-31T11:35:35.138Z,1022.58
2022-12-31T11:36:35.961Z,1022.63
2022-12-31T11:37:36.798Z,1022.63
2022-12-31T11:38:37.651Z,1022.60
2022-12-31T11:39:38.467Z,1022.60
2022-12-31T11:40:39.281Z,1022.54
2022-12-31T11:41:40.130Z,1022.45
2022-12-31T11:42:40.940Z,1022.45
2022-12-31T11:43:41.769Z,1022.42
2022-12-31T11:44:42.618Z,1022.43
2022-12-31T11:45:50.247Z,1022.41
2022-12-31T11:46:45.254Z,1022.40
2022-12-31T11:48:27.991Z,1022.38
2022-12-31T11:48:46.816Z,1022.33
2022-12-31T11:49:46.648Z,1022.29
2022-12-31T11:50:47.448Z,1022.22
2022-12-31T11:51:50.658Z,1022.28
2022-12-31T11:52:49.191Z,1022.33
2022-12-31T11:53:50.025Z,1022.25
2022-12-31T11:54:50.860Z,1022.27
2022-12-31T11:55:51.679Z,1022.26
2022-12-31T11:56:52.509Z,1022.29
2022-12-31T11:57:53.342Z,1022.25
2022-12-31T11:58:54.175Z,1022.22
2022-12-31T11:59:55.044Z,1022.22
2022-12-31T12:00:55.881Z,1022.20
2022-12-31T12:01:56.691Z,1022.18
2022-12-31T12:02:57.581Z,1022.19
2022-12-31T12:03:58.417Z,1022.25
2022-12-31T12:05:00.255Z,1022.20
2022-12-31T12:05:59.869Z,1022.14
2022-12-31T12:07:00.685Z,1022.15
2022-12-31T12:08:01.513Z,1022.11
2022-12-31T12:09:02.344Z,1022.09
2022-12-31T12:10:03.187Z,1022.14
2022-12-31T12:11:04.017Z,1022.07
2022-12-31T12:12:04.844Z,1022.01
2022-12-31T12:13:05.674Z,1022.03
2022-12-31T12:14:06.503Z,1022.04
2022-12-31T12:15:07.343Z,1022.04
2022-12-31T12:16:08.239Z,1022.01